.
WxDataArchive / Data Records for 2015-10-05
2015-10-04 October 2015 2015-10-06

Data Records for Monday, 05 October 2015

Time	Temp	Chill	HIndex	Humid	Dewpt	 Wind 	HiWind	WindDir	Rain 	Barom
-----	----	-----	------	-----	-----	------	------	-------	-----	-----
00:00	57.6	57.6	57.6	89	54.4	2	5	112	0.00	30.125 
00:05	57.6	57.6	57.6	89	54.4	2	4	112	0.00	30.125 
00:10	57.6	57.6	57.6	89	54.4	2	5	90	0.00	30.125 
00:15	57.6	57.6	57.6	90	54.7	2	5	90	0.00	30.115 
00:20	57.6	57.6	57.6	90	54.7	2	5	90	0.00	30.115 
00:25	57.6	57.6	57.6	90	54.7	2	10	90	0.00	30.115 
00:30	57.6	57.6	57.6	90	54.7	1	4	90	0.00	30.112 
00:35	57.6	57.6	57.6	90	54.7	1	4	90	0.00	30.112 
00:40	57.6	57.6	57.6	90	54.7	1	5	112	0.00	30.112 
00:45	57.6	57.6	57.6	90	54.7	1	3	90	0.00	30.114 
00:50	57.6	57.6	57.6	91	55.0	1	3	90	0.00	30.114 
00:55	57.6	57.6	57.6	91	55.0	1	4	90	0.00	30.114 
01:00	57.6	57.6	57.6	91	55.0	0	3	90	0.00	30.112 
01:05	57.6	57.6	57.6	91	55.0	0	4	90	0.00	30.112 
01:10	57.6	57.6	57.6	91	55.0	0	2	90	0.00	30.112 
01:15	57.6	57.6	57.6	91	55.0	0	2	90	0.00	30.108 
01:20	57.6	57.6	57.6	91	55.0	0	2	90	0.00	30.108 
01:25	57.6	57.6	57.6	91	55.0	1	3	90	0.00	30.108 
01:30	57.6	57.6	57.6	91	55.0	1	4	90	0.00	30.101 
01:35	57.6	57.6	57.6	91	55.0	1	3	90	0.00	30.101 
01:40	57.6	57.6	57.6	92	55.3	0	3	90	0.00	30.101 
01:45	57.6	57.6	57.6	92	55.3	0	3	45	0.00	30.103 
01:50	57.8	57.8	57.8	92	55.5	0	1	45	0.00	30.103 
01:55	57.8	57.8	57.8	92	55.5	1	4	90	0.00	30.103 
02:00	57.8	57.8	57.8	92	55.5	1	4	90	0.00	30.103 
02:05	57.8	57.8	57.8	92	55.5	1	4	90	0.00	30.103 
02:10	57.6	57.6	57.6	92	55.3	0	2	90	0.00	30.103 
02:15	57.8	57.8	57.8	92	55.5	1	4	90	0.00	30.095 
02:20	57.6	57.6	57.6	92	55.3	1	4	90	0.00	30.095 
02:25	57.8	57.8	57.8	92	55.5	1	5	90	0.00	30.095 
02:30	57.8	57.8	57.8	92	55.5	0	4	90	0.00	30.100 
02:35	57.8	57.8	57.8	92	55.5	1	4	90	0.00	30.100 
02:40	57.8	57.8	57.8	92	55.5	0	2	90	0.00	30.100 
02:45	57.8	57.8	57.8	92	55.5	0	3	90	0.00	30.099 
02:50	57.8	57.8	57.8	93	55.8	0	2	90	0.00	30.099 
02:55	57.8	57.8	57.8	93	55.8	0	1	90	0.00	30.099 
03:00	57.8	57.8	57.8	93	55.8	0	2	90	0.00	30.103 
03:05	57.8	57.8	57.8	93	55.8	1	4	90	0.00	30.103 
03:10	57.8	57.8	57.8	93	55.8	0	1	90	0.00	30.103 
03:15	57.8	57.8	57.8	93	55.8	0	1	90	0.00	30.100 
03:20	57.8	57.8	57.8	93	55.8	1	4	90	0.00	30.100 
03:25	57.8	57.8	57.8	93	55.8	0	2	90	0.00	30.100 
03:30	57.8	57.8	57.8	93	55.8	1	4	90	0.00	30.096 
03:35	57.8	57.8	57.8	93	55.8	0	2	90	0.00	30.096 
03:40	57.8	57.8	57.8	93	55.8	1	3	90	0.00	30.096 
03:45	57.8	57.8	57.8	93	55.8	1	4	90	0.00	30.093 
03:50	57.8	57.8	57.8	93	55.8	1	4	90	0.00	30.093 
03:55	58.0	58.0	58.0	93	56.0	1	5	90	0.00	30.093 
04:00	58.0	58.0	58.0	93	56.0	1	3	90	0.00	30.085 
04:05	58.0	58.0	58.0	93	56.0	1	3	68	0.00	30.085 
04:10	58.0	58.0	58.0	93	56.0	0	3	68	0.00	30.085 
04:15	58.0	58.0	58.0	93	56.0	0	2	68	0.00	30.079 
04:20	58.0	58.0	58.0	93	56.0	1	4	68	0.00	30.079 
04:25	58.0	58.0	58.0	93	56.0	0	1	90	0.00	30.079 
04:30	58.0	58.0	58.0	93	56.0	1	3	90	0.00	30.077 
04:35	58.0	58.0	58.0	93	56.0	1	5	90	0.00	30.077 
04:40	58.0	58.0	58.0	93	56.0	0	3	90	0.00	30.077 
04:45	58.0	58.0	58.0	93	56.0	0	2	90	0.00	30.088 
04:50	58.0	58.0	58.0	93	56.0	1	2	90	0.00	30.088 
04:55	58.0	58.0	58.0	93	56.0	1	3	90	0.00	30.088 
05:00	58.0	58.0	58.0	93	56.0	0	2	90	0.00	30.092 
05:05	58.0	58.0	58.0	93	56.0	0	2	90	0.00	30.092 
05:10	58.1	58.1	58.1	93	56.1	0	1	90	0.00	30.092 
05:15	58.0	58.0	58.0	93	56.0	0	2	90	0.00	30.093 
05:20	58.0	58.0	58.0	93	56.0	0	3	90	0.00	30.093 
05:25	58.0	58.0	58.0	93	56.0	1	3	90	0.00	30.093 
05:30	58.0	58.0	58.0	93	56.0	0	2	90	0.00	30.095 
05:35	58.0	58.0	58.0	93	56.0	0	4	90	0.00	30.095 
05:40	58.0	58.0	58.0	93	56.0	0	1	90	0.00	30.095 
05:45	57.8	57.8	57.8	93	55.8	0	1	90	0.00	30.103 
05:50	57.8	57.8	57.8	93	55.8	0	1	90	0.00	30.103 
05:55	57.8	57.8	57.8	93	55.8	0	1	90	0.00	30.103 
06:00	57.8	57.8	57.8	93	55.8	0	2	90	0.00	30.099 
06:05	57.6	57.6	57.6	93	55.6	0	1	90	0.00	30.099 
06:10	57.6	57.6	57.6	93	55.6	0	2	90	0.00	30.099 
06:15	57.6	57.6	57.6	93	55.6	0	1	90	0.00	30.110 
06:20	57.6	57.6	57.6	93	55.6	0	0	---	0.00	30.110 
06:25	57.6	57.6	57.6	93	55.6	0	1	90	0.00	30.110 
06:30	57.6	57.6	57.6	93	55.6	0	0	---	0.00	30.112 
06:35	57.5	57.5	57.5	93	55.5	0	2	90	0.00	30.112 
06:40	57.5	57.5	57.5	93	55.5	0	1	90	0.00	30.112 
06:45	57.5	57.5	57.5	93	55.5	0	0	---	0.00	30.115 
06:50	57.5	57.5	57.5	93	55.5	0	2	90	0.00	30.115 
06:55	57.5	57.5	57.5	93	55.5	0	3	90	0.00	30.115 
07:00	57.5	57.5	57.5	93	55.5	0	1	90	0.00	30.114 
07:05	57.5	57.5	57.5	93	55.5	0	2	90	0.00	30.114 
07:10	57.5	57.5	57.5	93	55.5	0	2	90	0.00	30.114 
07:15	57.5	57.5	57.5	93	55.5	0	1	90	0.00	30.120 
07:20	57.5	57.5	57.5	93	55.5	0	3	90	0.00	30.120 
07:25	57.3	57.3	57.3	93	55.3	0	2	90	0.00	30.120 
07:30	57.3	57.3	57.3	93	55.3	0	2	90	0.00	30.127 
07:35	57.3	57.3	57.3	93	55.3	0	1	90	0.00	30.127 
07:40	57.3	57.3	57.3	93	55.3	0	1	90	0.00	30.127 
07:45	57.3	57.3	57.3	93	55.3	0	1	90	0.00	30.131 
07:50	57.3	57.3	57.3	93	55.3	0	2	90	0.00	30.131 
07:55	57.2	57.2	57.2	93	55.2	0	0	---	0.00	30.131 
08:00	57.2	57.2	57.2	93	55.2	0	1	90	0.00	30.134 
08:05	57.3	57.3	57.3	93	55.3	0	2	90	0.00	30.134 
08:10	57.3	57.3	57.3	93	55.3	0	2	90	0.00	30.134 
08:15	57.3	57.3	57.3	93	55.3	0	1	90	0.00	30.138 
08:20	57.3	57.3	57.3	93	55.3	0	3	90	0.00	30.138 
08:25	57.3	57.3	57.3	93	55.3	0	4	90	0.00	30.138 
08:30	57.3	57.3	57.3	93	55.3	0	2	90	0.00	30.138 
08:35	57.5	57.5	57.5	93	55.5	0	1	90	0.00	30.138 
08:40	57.5	57.5	57.5	93	55.5	0	2	90	0.00	30.138 
08:45	57.3	57.3	57.3	93	55.3	1	3	90	0.00	30.140 
08:50	57.5	57.5	57.5	93	55.5	0	1	90	0.00	30.140 
08:55	57.5	57.5	57.5	92	55.2	0	2	90	0.00	30.140 
09:00	57.5	57.5	57.5	92	55.2	0	2	90	0.00	30.138 
09:05	57.5	57.5	57.5	92	55.2	0	2	90	0.00	30.138 
09:10	57.5	57.5	57.5	92	55.2	1	3	90	0.00	30.138 
09:15	57.3	57.3	57.3	92	55.0	0	2	90	0.00	30.146 
09:20	57.3	57.3	57.3	92	55.0	0	2	90	0.00	30.146 
09:25	57.3	57.3	57.3	92	55.0	0	2	90	0.00	30.146 
09:30	57.3	57.3	57.3	92	55.0	1	3	68	0.00	30.148 
09:35	57.3	57.3	57.3	92	55.0	1	4	68	0.00	30.148 
09:40	57.3	57.3	57.3	92	55.0	0	1	90	0.00	30.148 
09:45	57.3	57.3	57.3	92	55.0	0	0	---	0.00	30.152 
09:50	57.3	57.3	57.3	92	55.0	0	3	90	0.00	30.152 
09:55	57.2	57.2	57.2	92	54.9	0	2	90	0.00	30.152 
10:00	57.3	57.3	57.3	92	55.0	0	2	90	0.00	30.151 
10:05	57.3	57.3	57.3	92	55.0	0	2	90	0.00	30.151 
10:10	57.3	57.3	57.3	91	54.7	0	3	90	0.00	30.151 
10:15	57.3	57.3	57.3	91	54.7	0	2	90	0.00	30.155 
10:20	57.3	57.3	57.3	91	54.7	0	2	90	0.00	30.155 
10:25	57.5	57.5	57.5	91	54.9	0	1	90	0.00	30.155 
10:30	57.8	57.8	57.8	91	55.2	0	1	90	0.00	30.154 
10:35	57.8	57.8	57.8	91	55.2	0	1	90	0.00	30.154 
10:40	58.0	58.0	58.0	91	55.4	0	3	90	0.00	30.154 
10:45	58.1	58.1	58.1	90	55.2	0	1	90	0.00	30.153 
10:50	58.4	58.4	58.4	90	55.5	1	3	90	0.00	30.153 
10:55	58.3	58.3	58.3	89	55.1	1	3	90	0.00	30.153 
11:00	58.4	58.4	58.4	89	55.2	1	3	90	0.00	30.154 
11:05	58.6	58.6	58.6	89	55.4	0	3	90	0.00	30.154 
11:10	58.7	58.7	58.7	89	55.5	0	2	90	0.00	30.154 
11:15	58.9	58.9	58.9	89	55.7	0	2	90	0.00	30.150 
11:20	59.2	59.2	59.2	88	55.6	0	1	90	0.00	30.150 
11:25	59.3	59.3	59.3	88	55.7	0	2	90	0.00	30.150 
11:30	59.8	59.8	59.8	87	55.9	0	2	90	0.00	30.147 
11:35	59.9	59.9	59.9	86	55.7	0	3	90	0.00	30.147 
11:40	60.1	60.1	60.1	86	55.9	0	2	90	0.00	30.147 
11:45	60.4	60.4	60.4	86	56.2	0	3	90	0.00	30.146 
11:50	60.4	60.4	60.4	85	55.9	0	2	90	0.00	30.146 
11:55	60.7	60.7	60.7	85	56.2	0	4	68	0.00	30.146 
12:00	61.0	61.0	61.0	84	56.1	1	2	68	0.00	30.140 
12:05	61.6	61.6	61.6	84	56.7	1	4	68	0.00	30.140 
12:10	62.1	62.1	62.1	82	56.5	0	3	90	0.00	30.140 
12:15	62.0	62.0	62.0	81	56.1	0	2	90	0.00	30.138 
12:20	62.0	62.0	62.0	81	56.1	0	2	90	0.00	30.138 
12:25	62.0	62.0	62.0	81	56.1	0	1	90	0.00	30.138 
12:30	62.6	62.6	62.6	80	56.3	1	5	90	0.00	30.131 
12:35	62.9	62.9	62.9	80	56.6	0	2	90	0.00	30.131 
12:40	63.2	63.2	63.2	79	56.6	0	2	90	0.00	30.131 
12:45	63.9	63.9	63.9	79	57.3	0	1	90	0.00	30.128 
12:50	64.5	64.5	64.5	78	57.5	1	3	90	0.00	30.128 
12:55	64.8	64.8	64.8	77	57.4	0	3	315	0.00	30.128 
13:00	65.5	65.5	65.5	77	58.1	0	2	315	0.00	30.127 
13:05	65.8	65.8	65.8	75	57.6	0	2	315	0.00	30.127 
13:10	66.0	66.0	66.0	74	57.5	1	5	90	0.00	30.127 
13:15	66.0	66.0	66.0	76	58.2	1	4	112	0.00	30.121 
13:20	66.4	66.4	66.4	75	58.2	1	2	112	0.00	30.121 
13:25	66.6	66.6	66.6	73	57.7	0	3	22	0.00	30.121 
13:30	66.8	66.8	66.8	72	57.5	1	3	45	0.00	30.116 
13:35	67.3	67.3	67.3	72	58.0	0	3	90	0.00	30.116 
13:40	67.1	67.1	67.1	71	57.4	1	4	90	0.00	30.116 
13:45	67.1	67.1	67.1	73	58.1	0	3	90	0.00	30.110 
13:50	67.1	67.1	67.1	72	57.8	0	3	90	0.00	30.110 
13:55	67.3	67.3	67.3	71	57.6	1	3	90	0.00	30.110 
14:00	67.6	67.6	67.6	72	58.2	1	3	90	0.00	30.104 
14:05	67.9	67.9	67.9	71	58.1	1	4	90	0.00	30.104 
14:10	68.1	68.1	68.1	70	57.9	0	3	45	0.00	30.104 
14:15	68.3	68.3	68.3	70	58.1	0	2	45	0.00	30.104 
14:20	68.4	68.4	68.4	70	58.2	1	3	45	0.00	30.104 
14:25	68.8	68.8	68.8	69	58.2	0	2	68	0.00	30.104 
14:30	68.9	68.9	68.9	68	57.9	0	2	68	0.00	30.092 
14:35	69.4	69.4	69.4	67	58.0	0	2	68	0.00	30.092 
14:40	69.8	69.8	69.8	66	57.9	0	2	0	0.00	30.092 
14:45	70.3	70.3	70.3	65	58.0	1	3	90	0.00	30.078 
14:50	70.4	70.4	70.4	65	58.1	0	2	90	0.00	30.078 
14:55	70.8	70.8	70.8	65	58.4	1	5	90	0.00	30.078 
15:00	71.1	71.1	71.1	63	57.9	1	4	90	0.00	30.071 
15:05	71.5	71.5	71.5	64	58.7	0	1	90	0.00	30.071 
15:10	71.8	71.8	71.8	63	58.5	1	3	90	0.00	30.071 
15:15	72.0	72.0	72.0	62	58.3	1	4	68	0.00	30.061 
15:20	72.1	72.1	72.1	63	58.8	0	2	68	0.00	30.061 
15:25	72.1	72.1	72.1	63	58.8	2	6	90	0.00	30.061 
15:30	72.0	72.0	72.0	63	58.7	1	4	90	0.00	30.058 
15:35	72.0	72.0	72.0	61	57.8	1	3	90	0.00	30.058 
15:40	72.1	72.1	72.1	62	58.3	0	2	90	0.00	30.058 
15:45	72.3	72.3	72.3	61	58.1	0	2	90	0.00	30.057 
15:50	72.7	72.7	72.7	60	58.0	1	4	90	0.00	30.057 
15:55	72.5	72.5	72.5	61	58.3	1	5	90	0.00	30.057 
16:00	72.5	72.5	72.5	59	57.3	0	2	90	0.00	30.058 
16:05	72.5	72.5	72.5	60	57.8	0	2	90	0.00	30.058 
16:10	72.5	72.5	72.5	59	57.3	0	1	90	0.00	30.058 
16:15	72.7	72.7	72.7	58	57.1	0	3	90	0.00	30.057 
16:20	72.5	72.5	72.5	60	57.8	0	1	90	0.00	30.057 
16:25	72.5	72.5	72.5	61	58.3	0	2	90	0.00	30.057 
16:30	72.5	72.5	72.5	59	57.3	0	2	90	0.00	30.055 
16:35	72.5	72.5	72.5	60	57.8	1	4	45	0.00	30.055 
16:40	72.5	72.5	72.5	60	57.8	1	4	45	0.00	30.055 
16:45	72.5	72.5	72.5	61	58.3	1	3	68	0.00	30.056 
16:50	72.5	72.5	72.5	60	57.8	0	2	68	0.00	30.056 
16:55	72.5	72.5	72.5	60	57.8	0	1	68	0.00	30.056 
17:00	72.5	72.5	72.5	60	57.8	1	3	68	0.00	30.056 
17:05	72.5	72.5	72.5	60	57.8	0	2	68	0.00	30.056 
17:10	72.5	72.5	72.5	60	57.8	0	2	68	0.00	30.056 
17:15	72.3	72.3	72.3	60	57.6	0	3	68	0.00	30.053 
17:20	72.3	72.3	72.3	60	57.6	0	2	68	0.00	30.053 
17:25	72.1	72.1	72.1	60	57.4	0	2	68	0.00	30.053 
17:30	72.1	72.1	72.1	61	57.9	0	1	68	0.00	30.056 
17:35	72.1	72.1	72.1	60	57.4	0	4	68	0.00	30.056 
17:40	72.1	72.1	72.1	60	57.4	0	2	68	0.00	30.056 
17:45	72.0	72.0	72.0	61	57.8	0	2	68	0.00	30.057 
17:50	72.0	72.0	72.0	61	57.8	0	0	---	0.00	30.057 
17:55	72.0	72.0	72.0	61	57.8	0	1	68	0.00	30.057 
18:00	71.8	71.8	71.8	60	57.2	0	2	68	0.00	30.056 
18:05	71.8	71.8	71.8	62	58.1	0	0	---	0.00	30.056 
18:10	71.6	71.6	71.6	62	57.9	0	0	---	0.00	30.056 
18:15	71.5	71.5	71.5	62	57.8	0	0	---	0.00	30.056 
18:20	71.3	71.3	71.3	63	58.0	0	0	---	0.00	30.056 
18:25	71.1	71.1	71.1	63	57.9	0	1	68	0.00	30.056 
18:30	70.9	70.9	70.9	63	57.7	0	0	---	0.00	30.058 
18:35	70.6	70.6	70.6	64	57.8	0	0	---	0.00	30.058 
18:40	70.3	70.3	70.3	65	58.0	0	0	---	0.00	30.058 
18:45	69.9	69.9	69.9	65	57.6	0	0	---	0.00	30.058 
18:50	69.6	69.6	69.6	66	57.7	0	0	---	0.00	30.058 
18:55	69.1	69.1	69.1	67	57.7	0	0	---	0.00	30.058 
19:00	68.9	68.9	68.9	68	57.9	0	0	---	0.00	30.061 
19:05	68.6	68.6	68.6	68	57.6	0	0	---	0.00	30.061 
19:10	68.3	68.3	68.3	69	57.7	0	0	---	0.00	30.061 
19:15	67.9	67.9	67.9	70	57.7	0	0	---	0.00	30.063 
19:20	67.6	67.6	67.6	71	57.9	0	0	---	0.00	30.063 
19:25	67.3	67.3	67.3	71	57.6	0	0	---	0.00	30.063 
19:30	66.9	66.9	66.9	73	58.0	0	0	---	0.00	30.063 
19:35	66.6	66.6	66.6	74	58.0	0	0	---	0.00	30.063 
19:40	66.3	66.3	66.3	75	58.1	0	0	---	0.00	30.063 
19:45	65.8	65.8	65.8	75	57.6	0	0	---	0.00	30.065 
19:50	65.5	65.5	65.5	76	57.7	0	0	---	0.00	30.065 
19:55	65.2	65.2	65.2	77	57.8	0	0	---	0.00	30.065 
20:00	64.7	64.7	64.7	78	57.7	0	0	---	0.00	30.070 
20:05	64.3	64.3	64.3	79	57.6	0	0	---	0.00	30.070 
20:10	64.0	64.0	64.0	80	57.7	0	0	---	0.00	30.070 
20:15	63.7	63.7	63.7	81	57.8	0	0	---	0.00	30.074 
20:20	63.4	63.4	63.4	81	57.5	0	0	---	0.00	30.074 
20:25	63.2	63.2	63.2	82	57.6	0	0	---	0.00	30.074 
20:30	62.9	62.9	62.9	83	57.7	0	0	---	0.00	30.078 
20:35	62.7	62.7	62.7	84	57.8	0	0	---	0.00	30.078 
20:40	62.4	62.4	62.4	84	57.5	0	0	---	0.00	30.078 
20:45	62.3	62.3	62.3	84	57.4	0	0	---	0.00	30.080 
20:50	62.1	62.1	62.1	84	57.2	0	0	---	0.00	30.080 
20:55	62.0	62.0	62.0	85	57.4	0	0	---	0.00	30.080 
21:00	61.6	61.6	61.6	85	57.0	0	0	---	0.00	30.080 
21:05	61.5	61.5	61.5	86	57.3	0	0	---	0.00	30.080 
21:10	61.3	61.3	61.3	86	57.1	0	0	---	0.00	30.080 
21:15	61.2	61.2	61.2	86	57.0	0	0	---	0.00	30.083 
21:20	61.0	61.0	61.0	86	56.8	0	0	---	0.00	30.083 
21:25	60.9	60.9	60.9	87	57.0	0	0	---	0.00	30.083 
21:30	60.7	60.7	60.7	87	56.8	0	0	---	0.00	30.081 
21:35	60.5	60.5	60.5	87	56.6	0	0	---	0.00	30.081 
21:40	60.4	60.4	60.4	87	56.5	0	0	---	0.00	30.081 
21:45	60.2	60.2	60.2	88	56.6	0	0	---	0.00	30.085 
21:50	60.1	60.1	60.1	88	56.5	0	0	---	0.00	30.085 
21:55	59.9	59.9	59.9	88	56.3	0	0	---	0.00	30.085 
22:00	59.9	59.9	59.9	88	56.3	0	0	---	0.00	30.089 
22:05	60.1	60.1	60.1	89	56.8	0	0	---	0.00	30.089 
22:10	60.2	60.2	60.2	89	56.9	0	0	---	0.00	30.089 
22:15	60.2	60.2	60.2	89	56.9	0	0	---	0.00	30.092 
22:20	60.4	60.4	60.4	88	56.8	0	0	---	0.00	30.092 
22:25	60.4	60.4	60.4	88	56.8	0	0	---	0.00	30.092 
22:30	60.7	60.7	60.7	88	57.1	0	0	---	0.00	30.090 
22:35	60.9	60.9	60.9	88	57.3	0	0	---	0.00	30.090 
22:40	60.9	60.9	60.9	88	57.3	0	0	---	0.00	30.090 
22:45	61.0	61.0	61.0	87	57.1	0	2	68	0.00	30.084 
22:50	61.2	61.2	61.2	87	57.3	0	1	68	0.00	30.084 
22:55	61.3	61.3	61.3	86	57.1	0	1	68	0.00	30.084 
23:00	61.3	61.3	61.3	86	57.1	0	0	---	0.00	30.089 
23:05	61.3	61.3	61.3	85	56.7	0	0	---	0.00	30.089 
23:10	61.2	61.2	61.2	85	56.6	0	0	---	0.00	30.089 
23:15	61.0	61.0	61.0	85	56.5	0	0	---	0.00	30.089 
23:20	60.7	60.7	60.7	85	56.2	0	0	---	0.00	30.089 
23:25	60.5	60.5	60.5	86	56.3	0	0	---	0.00	30.089 
23:30	60.4	60.4	60.4	86	56.2	0	0	---	0.00	30.094 
23:35	60.2	60.2	60.2	86	56.0	0	0	---	0.00	30.094 
23:40	59.9	59.9	59.9	87	56.0	0	0	---	0.00	30.094 
23:45	59.8	59.8	59.8	87	55.9	0	0	---	0.00	30.090 
23:50	59.6	59.6	59.6	88	56.0	0	0	---	0.00	30.090 
23:55	59.5	59.5	59.5	88	55.9	0	0	---	0.00	30.090 

CoCoRaHS
IN-AL-39
A2 Web Hosting
Creative Commons License
GoDaddy
search engine by freefind advanced

loaded 2018-11-16 00:41:43 • last modified 2010-11-18 10:43:29
Privacy PolicyDisclaimer
• wx.awcolley.com is powered by PmWiki v.2002016 •
• all content (unless otherwise noted) © 2018 A W Colley